Airport ID:CYTF
Update Time (UTC):18/08/2022 06:43
Wind Speed (Knots):2
Wind Direction (Magnetic):120
Temperature (°C):17.1
Dew Point (°C):11.2
Humidity (%):68
Altimeter (inHg):29.96
Density Altitude (Feet):\\\\
Visibility (Miles):6
Clouds (Hundreds of feet):OVC130
Present Weather:
METAR:METAR CYTF 180630Z AUTO 10002KT 10SM OVC130 17/11 A2996

The data displayed is for advisory purposes only and is not to be used for flight planning or operations.

This page is not automatically refreshed. Reload the page to see current data.